createdAt,value
2019-05-22T00:00:45.577Z,101355.39
2019-05-22T00:01:49.388Z,101353.70
2019-05-22T00:02:50.781Z,101357.74
2019-05-22T00:03:54.258Z,101355.05
2019-05-22T00:05:13.925Z,101351.02
2019-05-22T00:06:18.410Z,101349.67
2019-05-22T00:07:21.715Z,101351.21
2019-05-22T00:08:23.300Z,101343.80
2019-05-22T00:09:27.413Z,101346.63
2019-05-22T00:10:33.321Z,101344.59
2019-05-22T00:11:35.034Z,101342.73
2019-05-22T00:12:46.775Z,101333.83
2019-05-22T00:13:44.150Z,101343.25
2019-05-22T00:14:45.705Z,101340.56
2019-05-22T00:15:49.096Z,101335.66
2019-05-22T00:16:50.587Z,101338.02
2019-05-22T00:17:54.192Z,101340.22
2019-05-22T00:18:55.880Z,101335.32
2019-05-22T00:19:57.775Z,101330.80
2019-05-22T00:20:59.353Z,101332.97
2019-05-22T00:22:17.560Z,101336.17
2019-05-22T00:23:18.956Z,101332.97
2019-05-22T00:24:22.433Z,101330.47
2019-05-22T00:25:28.964Z,101328.45
2019-05-22T00:26:30.913Z,101328.45
2019-05-22T00:27:34.212Z,101320.02
2019-05-22T00:28:37.706Z,101332.28
2019-05-22T00:29:40.695Z,101324.72
2019-05-22T00:30:44.480Z,101327.42
2019-05-22T00:31:47.471Z,101324.72
2019-05-22T00:32:50.060Z,101328.42
2019-05-22T00:33:51.477Z,101329.25
2019-05-22T00:34:54.950Z,101323.03
2019-05-22T00:35:58.648Z,101325.73
2019-05-22T00:37:00.438Z,101328.42
2019-05-22T00:38:02.799Z,101329.59
2019-05-22T00:39:06.035Z,101328.42
2019-05-22T00:40:09.745Z,101327.08
2019-05-22T00:41:12.861Z,101327.42
2019-05-22T00:42:14.865Z,101330.59
2019-05-22T00:43:18.178Z,101326.21
2019-05-22T00:44:21.492Z,101332.12
2019-05-22T00:45:24.048Z,101325.88
2019-05-22T00:46:25.441Z,101325.88
2019-05-22T00:47:29.029Z,101327.73
2019-05-22T00:48:31.394Z,101319.66
2019-05-22T00:49:33.370Z,101331.77
2019-05-22T00:50:48.800Z,101325.05
2019-05-22T00:52:07.425Z,101328.56
2019-05-22T00:53:27.384Z,101329.25
2019-05-22T00:54:37.668Z,101332.28
2019-05-22T00:55:46.777Z,101325.73
2019-05-22T00:56:52.852Z,101332.60
2019-05-22T00:57:56.130Z,101332.44
2019-05-22T00:58:59.524Z,101333.09
2019-05-22T01:00:21.201Z,101331.41
2019-05-22T01:01:27.823Z,101328.72
2019-05-22T01:02:36.009Z,101329.88
2019-05-22T01:03:38.109Z,101327.03
2019-05-22T01:04:42.257Z,101330.72
2019-05-22T01:05:43.757Z,101332.73
2019-05-22T01:06:47.451Z,101329.69
2019-05-22T01:07:50.981Z,101330.17
2019-05-22T01:08:52.461Z,101334.22
2019-05-22T01:09:57.890Z,101329.34
2019-05-22T01:11:00.493Z,101332.87
2019-05-22T01:12:02.626Z,101329.17
2019-05-22T01:13:04.396Z,101332.73
2019-05-22T01:14:08.381Z,101331.72
2019-05-22T01:15:14.185Z,101332.20
2019-05-22T01:16:16.943Z,101335.24
2019-05-22T01:17:20.630Z,101331.20
2019-05-22T01:18:22.722Z,101341.48
2019-05-22T01:19:24.728Z,101338.28
2019-05-22T01:20:27.837Z,101340.83
2019-05-22T01:21:30.212Z,101338.63
2019-05-22T01:22:33.418Z,101341.66
2019-05-22T01:23:35.989Z,101337.13
2019-05-22T01:24:38.092Z,101341.17
2019-05-22T01:25:41.378Z,101338.82
2019-05-22T01:26:43.069Z,101336.61
2019-05-22T01:27:46.365Z,101337.82
2019-05-22T01:28:48.060Z,101338.16
2019-05-22T01:29:49.950Z,101333.12
2019-05-22T01:30:53.289Z,101330.43
2019-05-22T01:31:59.574Z,101337.50
2019-05-22T01:33:04.075Z,101337.67
2019-05-22T01:34:12.511Z,101338.19
2019-05-22T01:35:16.033Z,101338.98
2019-05-22T01:36:23.117Z,101337.16
2019-05-22T01:37:25.793Z,101337.84
2019-05-22T01:38:28.399Z,101340.36
2019-05-22T01:39:35.287Z,101335.98
2019-05-22T01:40:48.241Z,101335.49
2019-05-22T01:41:51.457Z,101334.14
2019-05-22T01:42:54.929Z,101338.53
2019-05-22T01:43:56.924Z,101337.52
2019-05-22T01:45:05.937Z,101340.36
2019-05-22T01:46:03.204Z,101339.53
2019-05-22T01:47:09.366Z,101338.19
2019-05-22T01:48:16.695Z,101336.84
2019-05-22T01:49:19.775Z,101334.48
2019-05-22T01:50:40.637Z,101333.97
2019-05-22T01:51:42.035Z,101332.63
2019-05-22T01:52:45.516Z,101331.48
2019-05-22T01:53:49.500Z,101337.52
2019-05-22T01:54:51.971Z,101335.49
2019-05-22T01:56:03.001Z,101331.45
2019-05-22T01:57:04.678Z,101331.11
2019-05-22T01:58:07.797Z,101332.80
2019-05-22T01:59:10.675Z,101327.08
2019-05-22T02:00:12.762Z,101332.12
2019-05-22T02:01:19.241Z,101332.12
2019-05-22T02:02:23.029Z,101335.64
2019-05-22T02:03:27.214Z,101337.84
2019-05-22T02:04:29.912Z,101332.45
2019-05-22T02:05:32.794Z,101329.08
2019-05-22T02:06:36.509Z,101328.08
2019-05-22T02:07:38.294Z,101334.47
2019-05-22T02:08:43.393Z,101329.91
2019-05-22T02:09:45.788Z,101332.12
2019-05-22T02:10:49.237Z,101329.42
2019-05-22T02:12:05.254Z,101325.53
2019-05-22T02:13:08.967Z,101322.35
2019-05-22T02:14:14.836Z,101324.04
2019-05-22T02:15:18.193Z,101328.08
2019-05-22T02:16:20.776Z,101326.73
2019-05-22T02:17:28.933Z,101320.48
2019-05-22T02:18:33.014Z,101321.49
2019-05-22T02:19:34.616Z,101321.49
2019-05-22T02:20:38.205Z,101322.35
2019-05-22T02:21:40.108Z,101319.31
2019-05-22T02:22:41.699Z,101319.31
2019-05-22T02:23:45.188Z,101321.49
2019-05-22T02:24:49.278Z,101317.97
2019-05-22T02:25:51.564Z,101313.94
2019-05-22T02:26:55.260Z,101317.97
2019-05-22T02:27:58.375Z,101319.31
2019-05-22T02:29:00.550Z,101316.62
2019-05-22T02:30:04.162Z,101316.62
2019-05-22T02:31:08.359Z,101314.76
2019-05-22T02:32:12.860Z,101313.07
2019-05-22T02:33:17.151Z,101312.59
2019-05-22T02:34:18.537Z,101318.31
2019-05-22T02:35:21.140Z,101312.06
2019-05-22T02:36:24.314Z,101311.23
2019-05-22T02:37:26.541Z,101312.59
2019-05-22T02:38:28.732Z,101305.34
2019-05-22T02:39:32.119Z,101307.55
2019-05-22T02:40:34.524Z,101307.03
2019-05-22T02:41:39.996Z,101299.95
2019-05-22T02:42:41.785Z,101305.34
2019-05-22T02:43:43.272Z,101303.84
2019-05-22T02:44:45.102Z,101308.37
2019-05-22T02:45:46.948Z,101307.89
2019-05-22T02:46:50.337Z,101307.03
2019-05-22T02:47:52.523Z,101309.72
2019-05-22T02:48:55.209Z,101301.16
2019-05-22T02:49:57.608Z,101305.19
2019-05-22T02:50:59.187Z,101305.53
2019-05-22T02:52:02.180Z,101304.67
2019-05-22T02:53:07.189Z,101300.15
2019-05-22T02:54:09.607Z,101303.19
2019-05-22T02:55:11.563Z,101299.14
2019-05-22T02:56:14.252Z,101299.14
2019-05-22T02:57:16.148Z,101301.84
2019-05-22T02:58:18.077Z,101302.67
2019-05-22T02:59:20.387Z,101304.19
2019-05-22T03:00:25.617Z,101297.46
2019-05-22T03:01:27.428Z,101299.63
2019-05-22T03:02:31.845Z,101297.80
2019-05-22T03:03:34.741Z,101295.59
2019-05-22T03:04:52.981Z,101300.49
2019-05-22T03:05:54.661Z,101292.08
2019-05-22T03:06:56.339Z,101297.97
2019-05-22T03:07:58.240Z,101298.63
2019-05-22T03:09:18.248Z,101304.19
2019-05-22T03:10:22.452Z,101297.46
2019-05-22T03:11:25.761Z,101295.80
2019-05-22T03:12:29.876Z,101297.14
2019-05-22T03:13:56.915Z,101298.97
2019-05-22T03:15:00.535Z,101302.18
2019-05-22T03:16:01.947Z,101301.86
2019-05-22T03:17:07.028Z,101306.56
2019-05-22T03:18:09.794Z,101303.53
2019-05-22T03:19:16.687Z,101308.05
2019-05-22T03:20:21.106Z,101307.70
2019-05-22T03:21:23.040Z,101305.88
2019-05-22T03:22:40.197Z,101306.36
2019-05-22T03:23:41.590Z,101303.67
2019-05-22T03:24:43.113Z,101305.70
2019-05-22T03:25:45.892Z,101303.53
2019-05-22T03:26:47.904Z,101304.19
2019-05-22T03:27:50.072Z,101302.67
2019-05-22T03:28:51.761Z,101304.02
2019-05-22T03:29:54.676Z,101302.67
2019-05-22T03:30:56.373Z,101303.53
2019-05-22T03:31:59.310Z,101299.48
2019-05-22T03:33:03.769Z,101298.63
2019-05-22T03:34:05.147Z,101293.24
2019-05-22T03:35:07.154Z,101297.63
2019-05-22T03:36:11.729Z,101297.63
2019-05-22T03:37:14.137Z,101296.45
2019-05-22T03:38:17.682Z,101298.14
2019-05-22T03:39:20.111Z,101299.48
2019-05-22T03:40:21.714Z,101299.98
2019-05-22T03:41:23.526Z,101305.88
2019-05-22T03:42:25.329Z,101299.98
2019-05-22T03:43:29.487Z,101306.70
2019-05-22T03:44:31.005Z,101304.87
2019-05-22T03:45:35.021Z,101306.22
2019-05-22T03:46:41.501Z,101310.26
2019-05-22T03:47:42.892Z,101307.22
2019-05-22T03:48:44.438Z,101305.36
2019-05-22T03:49:46.014Z,101305.88
2019-05-22T03:50:47.531Z,101307.22
2019-05-22T03:51:50.139Z,101308.91
2019-05-22T03:52:54.512Z,101308.57
2019-05-22T03:53:56.530Z,101307.56
2019-05-22T03:55:00.188Z,101298.63
2019-05-22T03:56:01.618Z,101304.87
2019-05-22T03:57:03.392Z,101310.60
2019-05-22T03:58:04.994Z,101303.01
2019-05-22T03:59:06.673Z,101302.67
2019-05-22T04:00:16.970Z,101300.84
2019-05-22T04:01:21.151Z,101302.18
2019-05-22T04:02:23.952Z,101302.87
2019-05-22T04:03:26.948Z,101301.52
2019-05-22T04:04:34.735Z,101295.80
2019-05-22T04:05:38.022Z,101298.83
2019-05-22T04:06:39.658Z,101295.13
2019-05-22T04:07:42.318Z,101293.78
2019-05-22T04:08:44.716Z,101292.92
2019-05-22T04:09:48.286Z,101295.13
2019-05-22T04:10:59.195Z,101294.13
2019-05-22T04:12:02.090Z,101299.85
2019-05-22T04:13:03.876Z,101302.41
2019-05-22T04:14:05.265Z,101302.55
2019-05-22T04:15:08.846Z,101303.55
2019-05-22T04:16:12.439Z,101295.47
2019-05-22T04:17:14.124Z,101304.37
2019-05-22T04:18:17.912Z,101302.55
2019-05-22T04:19:20.874Z,101300.86
2019-05-22T04:20:22.338Z,101298.84
2019-05-22T04:21:24.451Z,101306.78
2019-05-22T04:22:26.266Z,101305.92
2019-05-22T04:23:27.785Z,101306.78
2019-05-22T04:24:29.349Z,101305.78
2019-05-22T04:25:31.454Z,101301.73
2019-05-22T04:26:32.873Z,101307.95
2019-05-22T04:27:35.907Z,101302.08
2019-05-22T04:28:46.952Z,101305.59
2019-05-22T04:29:49.750Z,101305.94
2019-05-22T04:30:53.130Z,101305.63
2019-05-22T04:32:11.655Z,101303.59
2019-05-22T04:33:13.242Z,101301.91
2019-05-22T04:34:15.143Z,101300.23
2019-05-22T04:35:18.707Z,101302.77
2019-05-22T04:36:21.995Z,101302.08
2019-05-22T04:37:24.482Z,101303.91
2019-05-22T04:38:26.582Z,101309.30
2019-05-22T04:39:28.682Z,101305.78
2019-05-22T04:40:40.187Z,101308.47
2019-05-22T04:41:42.618Z,101307.61
2019-05-22T04:42:44.729Z,101306.95
2019-05-22T04:43:46.836Z,101311.98
2019-05-22T04:45:13.809Z,101306.27
2019-05-22T04:46:16.825Z,101301.39
2019-05-22T04:47:19.054Z,101304.25
2019-05-22T04:48:21.129Z,101304.58
2019-05-22T04:49:23.389Z,101302.89
2019-05-22T04:50:25.873Z,101298.16
2019-05-22T04:51:29.495Z,101298.16
2019-05-22T04:52:31.182Z,101299.52
2019-05-22T04:53:33.695Z,101295.47
2019-05-22T04:54:35.198Z,101297.30
2019-05-22T04:55:37.944Z,101292.44
2019-05-22T04:56:39.937Z,101298.16
2019-05-22T04:57:41.627Z,101297.30
2019-05-22T04:58:43.000Z,101289.74
2019-05-22T04:59:44.413Z,101290.23
2019-05-22T05:00:46.090Z,101290.23
2019-05-22T05:01:48.185Z,101288.89
2019-05-22T05:02:51.134Z,101294.13
2019-05-22T05:03:54.840Z,101291.92
2019-05-22T05:04:57.745Z,101290.09
2019-05-22T05:05:59.353Z,101292.26
2019-05-22T05:07:02.964Z,101293.12
2019-05-22T05:08:04.997Z,101286.73
2019-05-22T05:09:07.777Z,101289.42
2019-05-22T05:10:09.375Z,101285.39
2019-05-22T05:11:10.772Z,101286.59
2019-05-22T05:12:12.287Z,101284.37
2019-05-22T05:13:13.856Z,101281.88
2019-05-22T05:14:15.461Z,101284.06
2019-05-22T05:15:16.937Z,101287.44
2019-05-22T05:16:18.537Z,101284.08
2019-05-22T05:17:20.227Z,101286.11
2019-05-22T05:18:21.729Z,101284.44
2019-05-22T05:19:23.319Z,101280.59
2019-05-22T05:20:24.772Z,101287.83
2019-05-22T05:21:26.877Z,101284.50
2019-05-22T05:22:41.242Z,101288.22
2019-05-22T05:23:42.621Z,101286.20
2019-05-22T05:24:44.234Z,101286.38
2019-05-22T05:25:45.804Z,101287.25
2019-05-22T05:26:47.215Z,101283.36
2019-05-22T05:27:49.199Z,101285.58
2019-05-22T05:28:51.502Z,101280.87
2019-05-22T05:29:52.988Z,101282.75
2019-05-22T05:30:54.481Z,101279.77
2019-05-22T05:31:56.267Z,101280.27
2019-05-22T05:32:57.992Z,101279.45
2019-05-22T05:34:18.137Z,101282.64
2019-05-22T05:35:20.744Z,101277.44
2019-05-22T05:36:22.519Z,101276.30
2019-05-22T05:37:25.416Z,101276.97
2019-05-22T05:38:33.438Z,101280.34
2019-05-22T05:39:39.438Z,101279.67
2019-05-22T05:40:41.577Z,101274.78
2019-05-22T05:41:43.130Z,101285.75
2019-05-22T05:42:44.751Z,101286.92
2019-05-22T05:43:46.242Z,101284.41
2019-05-22T05:44:47.621Z,101285.42
2019-05-22T05:45:50.128Z,101280.71
2019-05-22T05:46:51.806Z,101280.38
2019-05-22T05:47:55.115Z,101278.88
2019-05-22T05:48:56.903Z,101277.69
2019-05-22T05:49:58.694Z,101275.17
2019-05-22T05:51:06.653Z,101273.98
2019-05-22T05:52:10.132Z,101275.66
2019-05-22T05:53:16.250Z,101268.59
2019-05-22T05:54:18.447Z,101264.05
2019-05-22T05:55:23.021Z,101269.63
2019-05-22T05:56:25.012Z,101266.41
2019-05-22T05:57:37.336Z,101268.63
2019-05-22T05:58:40.146Z,101268.77
2019-05-22T05:59:41.916Z,101268.63
2019-05-22T06:00:46.188Z,101268.63
2019-05-22T06:01:49.784Z,101269.11
2019-05-22T06:02:56.504Z,101266.27
2019-05-22T06:03:57.644Z,101267.61
2019-05-22T06:04:59.229Z,101269.30
2019-05-22T06:06:14.026Z,101265.25
2019-05-22T06:07:17.620Z,101269.30
2019-05-22T06:08:19.092Z,101262.70
2019-05-22T06:09:21.951Z,101273.49
2019-05-22T06:10:28.907Z,101274.02
2019-05-22T06:11:39.833Z,101271.31
2019-05-22T06:12:43.147Z,101269.11
2019-05-22T06:13:44.528Z,101270.30
2019-05-22T06:14:46.766Z,101265.58
2019-05-22T06:15:51.849Z,101273.68
2019-05-22T06:17:16.336Z,101275.02
2019-05-22T06:18:33.759Z,101270.64
2019-05-22T06:19:44.627Z,101271.31
2019-05-22T06:21:02.788Z,101273.68
2019-05-22T06:21:50.371Z,101270.30
2019-05-22T06:23:26.389Z,101269.63
2019-05-22T06:24:36.025Z,101263.23
2019-05-22T06:25:37.726Z,101271.81
2019-05-22T06:26:46.612Z,101267.27
2019-05-22T06:27:50.609Z,101269.30
2019-05-22T06:28:52.104Z,101268.44
2019-05-22T06:30:00.006Z,101269.78
2019-05-22T06:31:03.396Z,101273.98
2019-05-22T06:32:10.286Z,101271.98
2019-05-22T06:33:29.947Z,101270.64
2019-05-22T06:34:31.741Z,101278.21
2019-05-22T06:35:34.696Z,101273.16
2019-05-22T06:36:36.124Z,101271.98
2019-05-22T06:37:47.241Z,101271.13
2019-05-22T06:39:00.146Z,101274.84
2019-05-22T06:40:02.621Z,101269.30
2019-05-22T06:41:04.801Z,101267.95
2019-05-22T06:42:06.500Z,101269.45
2019-05-22T06:43:24.160Z,101278.39
2019-05-22T06:44:30.273Z,101270.45
2019-05-22T06:45:31.725Z,101268.28
2019-05-22T06:46:44.262Z,101274.17
2019-05-22T06:47:46.753Z,101272.48
2019-05-22T06:48:51.770Z,101275.52
2019-05-22T06:49:54.096Z,101276.04
2019-05-22T06:50:55.780Z,101278.39
2019-05-22T06:51:57.674Z,101276.68
2019-05-22T06:53:09.433Z,101273.48
2019-05-22T06:54:02.868Z,101275.70
2019-05-22T06:55:05.241Z,101274.35
2019-05-22T06:56:06.649Z,101274.84
2019-05-22T06:57:10.971Z,101282.78
2019-05-22T06:58:12.570Z,101278.39
2019-05-22T06:59:13.953Z,101280.08
2019-05-22T07:00:17.844Z,101280.08
2019-05-22T07:01:19.437Z,101281.92
2019-05-22T07:02:21.269Z,101276.04
2019-05-22T07:03:23.538Z,101282.44
2019-05-22T07:04:25.249Z,101277.05
2019-05-22T07:05:27.432Z,101273.34
2019-05-22T07:06:28.944Z,101276.04
2019-05-22T07:07:30.526Z,101275.70
2019-05-22T07:08:31.923Z,101272.81
2019-05-22T07:09:33.315Z,101270.30
2019-05-22T07:10:35.204Z,101273.83
2019-05-22T07:11:37.183Z,101272.48
2019-05-22T07:12:38.685Z,101274.69
2019-05-22T07:13:40.660Z,101270.64
2019-05-22T07:15:05.817Z,101277.05
2019-05-22T07:16:07.300Z,101275.18
2019-05-22T07:17:11.496Z,101267.27
2019-05-22T07:18:14.595Z,101271.66
2019-05-22T07:19:16.761Z,101270.80
2019-05-22T07:20:18.855Z,101275.85
2019-05-22T07:21:33.329Z,101272.81
2019-05-22T07:22:25.234Z,101272.30
2019-05-22T07:23:27.136Z,101273.30
2019-05-22T07:24:28.936Z,101269.78
2019-05-22T07:25:32.451Z,101276.52
2019-05-22T07:26:35.256Z,101271.13
2019-05-22T07:27:37.071Z,101268.92
2019-05-22T07:28:39.265Z,101277.35
2019-05-22T07:29:40.742Z,101271.13
2019-05-22T07:30:43.268Z,101276.52
2019-05-22T07:31:45.354Z,101279.56
2019-05-22T07:32:47.554Z,101274.98
2019-05-22T07:33:50.982Z,101274.16
2019-05-22T07:34:52.589Z,101273.64
2019-05-22T07:36:09.188Z,101272.30
2019-05-22T07:36:57.804Z,101261.17
2019-05-22T07:37:59.812Z,101266.90
2019-05-22T07:39:01.572Z,101267.77
2019-05-22T07:40:05.555Z,101267.23
2019-05-22T07:41:07.650Z,101278.55
2019-05-22T07:42:09.027Z,101274.84
2019-05-22T07:43:10.528Z,101271.28
2019-05-22T07:44:12.048Z,101277.69
2019-05-22T07:45:13.957Z,101277.35
2019-05-22T07:46:15.414Z,101285.78
2019-05-22T07:47:20.899Z,101282.25
2019-05-22T07:48:23.676Z,101288.81
2019-05-22T07:49:25.469Z,101286.64
2019-05-22T07:50:28.559Z,101287.13
2019-05-22T07:51:30.935Z,101292.03
2019-05-22T07:52:32.501Z,101286.30
2019-05-22T07:53:33.872Z,101290.34
2019-05-22T07:54:37.426Z,101286.79
2019-05-22T07:55:40.063Z,101284.62
2019-05-22T07:56:42.773Z,101287.66
2019-05-22T07:57:47.640Z,101291.70
2019-05-22T07:58:49.133Z,101288.14
2019-05-22T07:59:51.409Z,101288.14
2019-05-22T08:00:55.277Z,101288.66
2019-05-22T08:01:56.976Z,101293.53
2019-05-22T08:02:59.359Z,101290.02
2019-05-22T08:04:01.658Z,101296.23
2019-05-22T08:05:04.901Z,101289.48
2019-05-22T08:06:07.600Z,101291.70
2019-05-22T08:07:10.095Z,101292.19
2019-05-22T08:08:13.776Z,101285.78
2019-05-22T08:09:18.767Z,101291.84
2019-05-22T08:10:21.486Z,101287.31
2019-05-22T08:11:23.864Z,101286.79
2019-05-22T08:12:25.956Z,101290.34
2019-05-22T08:13:29.379Z,101288.14
2019-05-22T08:14:31.795Z,101286.79
2019-05-22T08:15:33.505Z,101290.84
2019-05-22T08:16:35.385Z,101288.66
2019-05-22T08:17:37.473Z,101289.48
2019-05-22T08:18:39.790Z,101282.41
2019-05-22T08:19:41.150Z,101285.96
2019-05-22T08:20:43.476Z,101293.53
2019-05-22T08:21:45.363Z,101283.75
2019-05-22T08:22:49.224Z,101291.36
2019-05-22T08:23:52.813Z,101287.80
2019-05-22T08:24:54.289Z,101291.51
2019-05-22T08:25:57.111Z,101289.15
2019-05-22T08:26:58.707Z,101296.41
2019-05-22T08:28:00.380Z,101292.03
2019-05-22T08:29:03.569Z,101289.33
2019-05-22T08:30:06.560Z,101289.48
2019-05-22T08:31:10.058Z,101294.55
2019-05-22T08:32:11.441Z,101293.38
2019-05-22T08:33:15.105Z,101296.56
2019-05-22T08:34:16.649Z,101293.38
2019-05-22T08:35:19.644Z,101292.52
2019-05-22T08:36:21.242Z,101297.91
2019-05-22T08:37:26.230Z,101296.56
2019-05-22T08:38:30.418Z,101291.17
2019-05-22T08:39:32.101Z,101292.52
2019-05-22T08:40:33.894Z,101291.69
2019-05-22T08:41:41.036Z,101290.83
2019-05-22T08:42:43.832Z,101282.41
2019-05-22T08:44:15.202Z,101291.51
2019-05-22T08:44:49.455Z,101284.61
2019-05-22T08:45:51.641Z,101280.05
2019-05-22T08:46:53.666Z,101288.14
2019-05-22T08:47:55.347Z,101284.27
2019-05-22T08:48:56.946Z,101282.06
2019-05-22T08:49:59.021Z,101280.56
2019-05-22T08:51:04.065Z,101283.08
2019-05-22T08:52:22.458Z,101277.20
2019-05-22T08:53:12.398Z,101280.23
2019-05-22T08:54:14.119Z,101283.75
2019-05-22T08:55:16.031Z,101275.33
2019-05-22T08:56:18.333Z,101279.37
2019-05-22T08:58:38.241Z,101273.15
2019-05-22T08:59:39.953Z,101284.42
2019-05-22T09:00:41.361Z,101278.70
2019-05-22T09:01:42.763Z,101282.73
2019-05-22T09:02:44.137Z,101280.56
2019-05-22T09:03:45.943Z,101282.25
2019-05-22T09:04:47.727Z,101284.42
2019-05-22T09:05:49.221Z,101281.39
2019-05-22T09:06:50.656Z,101285.77
2019-05-22T09:07:52.674Z,101279.03
2019-05-22T09:08:54.080Z,101277.34
2019-05-22T09:09:56.291Z,101282.25
2019-05-22T09:10:58.098Z,101280.38
2019-05-22T09:11:59.831Z,101280.72
2019-05-22T09:13:01.219Z,101282.06
2019-05-22T09:14:02.931Z,101280.72
2019-05-22T09:15:08.538Z,101279.37
2019-05-22T09:16:10.549Z,101281.58
2019-05-22T09:17:13.156Z,101285.95
2019-05-22T09:18:14.850Z,101285.10
2019-05-22T09:19:16.807Z,101289.15
2019-05-22T09:20:19.997Z,101288.14
2019-05-22T09:21:22.703Z,101282.92
2019-05-22T09:22:39.481Z,101287.31
2019-05-22T09:23:27.609Z,101288.14
2019-05-22T09:24:30.793Z,101287.31
2019-05-22T09:25:33.278Z,101286.11
2019-05-22T09:26:35.180Z,101287.80
2019-05-22T09:27:36.699Z,101294.05
2019-05-22T09:28:38.382Z,101293.19
2019-05-22T09:29:39.772Z,101290.49
2019-05-22T09:30:42.401Z,101289.48
2019-05-22T09:31:44.358Z,101291.17
2019-05-22T09:32:47.691Z,101290.83
2019-05-22T09:33:49.178Z,101286.64
2019-05-22T09:34:51.263Z,101293.38
2019-05-22T09:35:52.760Z,101292.03
2019-05-22T09:36:54.242Z,101290.34
2019-05-22T09:37:55.962Z,101296.08
2019-05-22T09:38:57.753Z,101297.77
2019-05-22T09:39:59.356Z,101299.11
2019-05-22T09:41:00.921Z,101298.59
2019-05-22T09:42:03.021Z,101297.77
2019-05-22T09:43:05.339Z,101288.81
2019-05-22T09:44:06.933Z,101295.89
2019-05-22T09:45:09.255Z,101294.87
2019-05-22T09:46:11.418Z,101301.28
2019-05-22T09:47:13.310Z,101297.24
2019-05-22T09:48:14.928Z,101296.23
2019-05-22T09:49:16.337Z,101295.74
2019-05-22T09:50:18.038Z,101299.27
2019-05-22T09:51:19.652Z,101297.91
2019-05-22T09:52:22.817Z,101302.48
2019-05-22T09:53:24.310Z,101299.27
2019-05-22T09:54:26.161Z,101303.16
2019-05-22T09:55:28.049Z,101300.61
2019-05-22T09:56:29.737Z,101296.57
2019-05-22T09:57:31.429Z,101307.36
2019-05-22T09:58:32.953Z,101300.12
2019-05-22T09:59:34.664Z,101303.83
2019-05-22T10:00:36.479Z,101301.97
2019-05-22T10:01:37.984Z,101302.30
2019-05-22T10:02:39.797Z,101306.34
2019-05-22T10:03:41.496Z,101303.16
2019-05-22T10:04:42.865Z,101298.63
2019-05-22T10:05:44.465Z,101299.45
2019-05-22T10:06:46.436Z,101295.93
2019-05-22T10:07:59.292Z,101297.77
2019-05-22T10:08:51.927Z,101290.16
2019-05-22T10:09:53.358Z,101286.98
2019-05-22T10:10:54.751Z,101291.88
2019-05-22T10:11:56.162Z,101285.63
2019-05-22T10:12:58.369Z,101286.48
2019-05-22T10:14:00.410Z,101291.88
2019-05-22T10:15:03.479Z,101288.66
2019-05-22T10:16:06.300Z,101290.87
2019-05-22T10:17:08.184Z,101289.19
2019-05-22T10:18:10.399Z,101289.52
2019-05-22T10:19:12.290Z,101286.83
2019-05-22T10:20:14.604Z,101293.23
2019-05-22T10:21:16.418Z,101294.58
2019-05-22T10:22:17.817Z,101298.11
2019-05-22T10:23:19.730Z,101290.53
2019-05-22T10:24:21.665Z,101293.57
2019-05-22T10:25:23.213Z,101290.87
2019-05-22T10:26:24.714Z,101290.02
2019-05-22T10:27:26.514Z,101294.06
2019-05-22T10:28:28.425Z,101291.88
2019-05-22T10:29:32.328Z,101295.93
2019-05-22T10:30:33.943Z,101290.53
2019-05-22T10:31:35.463Z,101294.58
2019-05-22T10:32:37.020Z,101288.33
2019-05-22T10:33:38.717Z,101289.19
2019-05-22T10:34:40.401Z,101287.84
2019-05-22T10:35:42.080Z,101289.67
2019-05-22T10:36:43.482Z,101286.48
2019-05-22T10:37:45.531Z,101289.67
2019-05-22T10:38:47.061Z,101286.64
2019-05-22T10:39:49.599Z,101292.03
2019-05-22T10:40:50.988Z,101287.84
2019-05-22T10:41:52.489Z,101288.81
2019-05-22T10:42:55.601Z,101281.25
2019-05-22T10:43:57.670Z,101290.69
2019-05-22T10:44:59.343Z,101290.53
2019-05-22T10:46:00.812Z,101286.48
2019-05-22T10:47:03.804Z,101280.72
2019-05-22T10:48:05.174Z,101286.12
2019-05-22T10:49:06.960Z,101276.68
2019-05-22T10:50:08.726Z,101281.25
2019-05-22T10:51:10.538Z,101278.02
2019-05-22T10:52:12.447Z,101275.85
2019-05-22T10:53:30.647Z,101276.68
2019-05-22T10:54:18.270Z,101273.98
2019-05-22T10:55:21.973Z,101273.64
2019-05-22T10:56:23.419Z,101273.98
2019-05-22T10:57:25.312Z,101273.64
2019-05-22T10:58:26.916Z,101278.02
2019-05-22T10:59:28.840Z,101270.95
2019-05-22T11:00:30.980Z,101276.68
2019-05-22T11:01:32.364Z,101276.34
2019-05-22T11:02:33.764Z,101273.98
2019-05-22T11:03:36.046Z,101270.80
2019-05-22T11:04:37.645Z,101271.47
2019-05-22T11:05:40.178Z,101278.02
2019-05-22T11:06:41.970Z,101278.55
2019-05-22T11:07:43.981Z,101279.03
2019-05-22T11:08:46.094Z,101275.85
2019-05-22T11:09:49.217Z,101274.50
2019-05-22T11:10:51.450Z,101277.05
2019-05-22T11:11:53.628Z,101273.98
2019-05-22T11:12:55.222Z,101274.98
2019-05-22T11:14:01.705Z,101286.12
2019-05-22T11:15:00.619Z,101274.50
2019-05-22T11:16:03.675Z,101280.72
2019-05-22T11:17:05.968Z,101280.39
2019-05-22T11:18:08.593Z,101278.02
2019-05-22T11:19:10.127Z,101273.98
2019-05-22T11:20:12.520Z,101280.39
2019-05-22T11:21:14.618Z,101281.25
2019-05-22T11:22:17.593Z,101278.55
2019-05-22T11:23:18.993Z,101280.39
2019-05-22T11:24:21.377Z,101279.03
2019-05-22T11:25:23.572Z,101280.72
2019-05-22T11:26:25.277Z,101278.21
2019-05-22T11:27:27.048Z,101282.07
2019-05-22T11:28:29.062Z,101279.56
2019-05-22T11:29:30.443Z,101282.93
2019-05-22T11:30:32.651Z,101280.72
2019-05-22T11:31:34.864Z,101275.85
2019-05-22T11:32:36.255Z,101275.85
2019-05-22T11:33:37.749Z,101281.25
2019-05-22T11:34:39.653Z,101273.64
2019-05-22T11:35:41.237Z,101279.38
2019-05-22T11:36:42.821Z,101271.28
2019-05-22T11:37:45.692Z,101275.85
2019-05-22T11:38:47.202Z,101274.98
2019-05-22T11:39:50.423Z,101278.55
2019-05-22T11:40:51.924Z,101273.98
2019-05-22T11:41:54.643Z,101278.02
2019-05-22T11:42:56.732Z,101270.45
2019-05-22T11:43:58.114Z,101278.55
2019-05-22T11:44:59.909Z,101276.86
2019-05-22T11:46:02.098Z,101275.33
2019-05-22T11:47:04.745Z,101274.66
2019-05-22T11:48:06.715Z,101271.95
2019-05-22T11:49:08.517Z,101275.52
2019-05-22T11:50:11.263Z,101277.20
2019-05-22T11:51:13.368Z,101276.34
2019-05-22T11:52:14.763Z,101273.64
2019-05-22T11:53:16.172Z,101274.16
2019-05-22T11:54:17.648Z,101277.69
2019-05-22T11:55:20.337Z,101274.98
2019-05-22T11:56:21.710Z,101276.34
2019-05-22T11:57:23.888Z,101272.62
2019-05-22T11:58:25.368Z,101276.00
2019-05-22T11:59:26.852Z,101277.69
2019-05-22T12:00:28.748Z,101279.38
2019-05-22T12:01:30.133Z,101269.59
2019-05-22T12:02:31.934Z,101273.64
2019-05-22T12:03:34.118Z,101266.90
2019-05-22T12:04:47.421Z,101267.77